createdAt,value
2019-05-25T00:00:10.353Z,67.96
2019-05-25T00:02:39.858Z,68.62
2019-05-25T00:05:10.294Z,68.80
2019-05-25T00:07:39.751Z,69.31
2019-05-25T00:10:09.555Z,69.35
2019-05-25T00:12:39.013Z,68.79
2019-05-25T00:15:08.694Z,68.85
2019-05-25T00:17:38.395Z,68.59
2019-05-25T00:20:07.974Z,68.21
2019-05-25T00:22:37.415Z,67.82
2019-05-25T00:25:08.480Z,68.45
2019-05-25T00:27:37.945Z,68.64
2019-05-25T00:30:08.502Z,68.74
2019-05-25T00:32:37.969Z,68.89
2019-05-25T00:35:07.651Z,68.79
2019-05-25T00:37:37.349Z,68.42
2019-05-25T00:40:08.109Z,68.31
2019-05-25T00:42:37.549Z,68.79
2019-05-25T00:45:07.550Z,68.82
2019-05-25T00:47:37.000Z,69.11
2019-05-25T00:50:09.186Z,69.22
2019-05-25T00:52:38.720Z,69.64
2019-05-25T00:55:09.284Z,69.44
2019-05-25T00:57:38.749Z,70.10
2019-05-25T01:00:08.837Z,70.23
2019-05-25T01:02:40.202Z,70.15
2019-05-25T01:05:10.199Z,70.00
2019-05-25T01:07:39.641Z,70.06
2019-05-25T01:10:09.616Z,70.37
2019-05-25T01:12:39.060Z,70.32
2019-05-25T01:15:09.632Z,70.61
2019-05-25T01:17:39.082Z,70.89
2019-05-25T01:20:10.742Z,70.89
2019-05-25T01:22:40.541Z,70.82
2019-05-25T01:25:11.392Z,70.95
2019-05-25T01:27:40.842Z,71.34
2019-05-25T01:30:11.986Z,71.29
2019-05-25T01:32:41.435Z,71.06
2019-05-25T01:35:11.307Z,70.97
2019-05-25T01:37:40.750Z,70.93
2019-05-25T01:40:11.401Z,71.11
2019-05-25T01:42:40.862Z,70.92
2019-05-25T01:45:10.927Z,70.56
2019-05-25T01:47:40.387Z,70.81
2019-05-25T01:50:10.203Z,71.52
2019-05-25T01:52:39.889Z,72.05
2019-05-25T01:55:09.557Z,72.26
2019-05-25T01:57:39.003Z,71.84
2019-05-25T02:00:09.422Z,71.65
2019-05-25T02:02:38.883Z,72.00
2019-05-25T02:05:08.536Z,71.91
2019-05-25T02:07:37.982Z,71.58
2019-05-25T02:10:10.509Z,71.14
2019-05-25T02:12:39.947Z,70.99
2019-05-25T02:15:10.217Z,71.47
2019-05-25T02:17:39.756Z,71.55
2019-05-25T02:20:10.306Z,71.67
2019-05-25T02:22:39.773Z,71.32
2019-05-25T02:25:18.977Z,71.29
2019-05-25T02:27:42.010Z,71.14
2019-05-25T02:30:12.595Z,70.87
2019-05-25T02:32:42.032Z,70.95
2019-05-25T02:35:19.050Z,70.74
2019-05-25T02:37:48.517Z,71.13
2019-05-25T02:40:18.137Z,71.25
2019-05-25T02:42:47.597Z,71.50
2019-05-25T02:45:17.197Z,71.78
2019-05-25T02:47:46.663Z,72.21
2019-05-25T02:50:16.167Z,72.18
2019-05-25T02:52:45.627Z,72.32
2019-05-25T02:55:32.437Z,72.25
2019-05-25T02:57:47.457Z,72.30
2019-05-25T03:00:17.459Z,72.06
2019-05-25T03:02:47.398Z,72.07
2019-05-25T03:05:17.666Z,72.13
2019-05-25T03:07:47.205Z,72.63
2019-05-25T03:10:16.791Z,73.08
2019-05-25T03:12:46.432Z,72.72
2019-05-25T03:15:17.699Z,73.05
2019-05-25T03:17:47.147Z,73.00
2019-05-25T03:20:16.876Z,72.90
2019-05-25T03:22:46.316Z,72.91
2019-05-25T03:25:15.823Z,72.96
2019-05-25T03:27:45.278Z,73.17
2019-05-25T03:30:15.318Z,73.04
2019-05-25T03:32:44.850Z,72.91
2019-05-25T03:35:14.482Z,73.26
2019-05-25T03:37:43.906Z,73.15
2019-05-25T03:40:13.432Z,73.11
2019-05-25T03:42:42.876Z,72.94
2019-05-25T03:45:14.128Z,72.85
2019-05-25T03:47:43.585Z,73.33
2019-05-25T03:50:13.700Z,73.45
2019-05-25T03:52:43.163Z,73.20
2019-05-25T03:55:12.605Z,73.27
2019-05-25T03:57:42.046Z,73.17
2019-05-25T04:00:12.113Z,72.96
2019-05-25T04:02:41.586Z,72.98
2019-05-25T04:05:11.071Z,73.31
2019-05-25T04:07:40.542Z,73.56
2019-05-25T04:10:10.407Z,73.35
2019-05-25T04:12:39.872Z,73.42
2019-05-25T04:15:09.462Z,73.81
2019-05-25T04:17:39.170Z,73.87
2019-05-25T04:20:08.715Z,73.47
2019-05-25T04:22:38.215Z,72.99
2019-05-25T04:25:08.044Z,72.61
2019-05-25T04:27:37.492Z,72.80
2019-05-25T04:30:07.742Z,72.73
2019-05-25T04:32:37.198Z,72.27
2019-05-25T04:35:07.778Z,72.30
2019-05-25T04:37:37.467Z,72.00
2019-05-25T04:40:09.736Z,71.72
2019-05-25T04:42:39.195Z,71.37
2019-05-25T04:45:09.082Z,70.98
2019-05-25T04:47:38.525Z,70.48
2019-05-25T04:50:09.026Z,69.93
2019-05-25T04:52:41.186Z,69.71
2019-05-25T04:55:09.955Z,69.26
2019-05-25T04:57:39.471Z,68.44
2019-05-25T05:00:10.035Z,68.70
2019-05-25T05:02:39.473Z,69.78
2019-05-25T05:05:09.163Z,69.92
2019-05-25T05:07:38.607Z,69.70
2019-05-25T05:10:08.773Z,69.49
2019-05-25T05:12:38.236Z,69.31
2019-05-25T05:15:08.006Z,69.15
2019-05-25T05:17:37.468Z,68.88
2019-05-25T05:20:08.689Z,68.36
2019-05-25T05:22:38.203Z,68.07
2019-05-25T05:25:09.506Z,67.65
2019-05-25T05:27:39.764Z,67.11
2019-05-25T05:30:10.358Z,67.18
2019-05-25T05:32:39.817Z,66.69
2019-05-25T05:35:10.494Z,66.12
2019-05-25T05:37:42.429Z,65.62
2019-05-25T05:40:12.119Z,64.48
2019-05-25T05:42:43.696Z,63.98
2019-05-25T05:45:13.364Z,63.54
2019-05-25T05:47:44.618Z,63.23
2019-05-25T05:50:14.315Z,62.89
2019-05-25T05:52:43.783Z,62.68
2019-05-25T05:55:17.264Z,61.57
2019-05-25T05:57:45.320Z,62.55
2019-05-25T06:00:15.119Z,62.00
2019-05-25T06:02:44.573Z,61.71
2019-05-25T06:05:14.177Z,60.67
2019-05-25T06:07:43.629Z,61.50
2019-05-25T06:10:13.339Z,61.30
2019-05-25T06:12:42.779Z,60.61
2019-05-25T06:15:12.391Z,60.65
2019-05-25T06:17:41.930Z,60.21
2019-05-25T06:20:11.831Z,59.46
2019-05-25T06:22:41.304Z,58.97
2019-05-25T06:25:11.107Z,57.20
2019-05-25T06:27:40.551Z,59.23
2019-05-25T06:30:10.633Z,59.32
2019-05-25T06:32:40.093Z,59.63
2019-05-25T06:35:10.187Z,59.71
2019-05-25T06:37:39.643Z,58.98
2019-05-25T06:40:10.505Z,59.30
2019-05-25T06:42:39.955Z,58.95
2019-05-25T06:45:10.067Z,59.46
2019-05-25T06:47:39.540Z,59.96
2019-05-25T06:50:09.887Z,59.13
2019-05-25T06:52:39.364Z,59.37
2019-05-25T06:55:09.722Z,59.92
2019-05-25T06:57:43.789Z,59.58
2019-05-25T07:00:11.069Z,59.73
2019-05-25T07:02:40.519Z,59.59
2019-05-25T07:05:10.115Z,59.86
2019-05-25T07:07:39.571Z,59.75
2019-05-25T07:10:10.126Z,59.35
2019-05-25T07:12:39.614Z,59.68
2019-05-25T07:15:09.774Z,58.23
2019-05-25T07:17:39.490Z,59.36
2019-05-25T07:20:10.567Z,60.71
2019-05-25T07:22:40.018Z,60.06
2019-05-25T07:25:09.868Z,59.94
2019-05-25T07:27:39.353Z,60.90
2019-05-25T07:30:09.309Z,60.78
2019-05-25T07:32:38.781Z,61.91
2019-05-25T07:35:08.836Z,61.17
2019-05-25T07:37:38.284Z,60.70
2019-05-25T07:40:08.473Z,61.75
2019-05-25T07:42:37.919Z,60.84
2019-05-25T07:45:09.500Z,60.71
2019-05-25T07:47:38.976Z,60.91
2019-05-25T07:50:09.534Z,60.48
2019-05-25T07:52:39.017Z,60.43
2019-05-25T07:55:08.797Z,59.83
2019-05-25T07:57:38.354Z,59.93
2019-05-25T08:00:09.192Z,59.25
2019-05-25T08:02:38.634Z,58.63
2019-05-25T08:05:09.208Z,57.97
2019-05-25T08:07:38.656Z,58.84
2019-05-25T08:10:08.665Z,58.81
2019-05-25T08:12:38.192Z,58.84
2019-05-25T08:15:08.147Z,57.52
2019-05-25T08:17:37.616Z,56.99
2019-05-25T08:20:08.696Z,56.93
2019-05-25T08:22:38.159Z,57.15
2019-05-25T08:25:08.513Z,57.76
2019-05-25T08:27:37.960Z,56.66
2019-05-25T08:30:08.634Z,56.66
2019-05-25T08:32:38.086Z,56.49
2019-05-25T08:35:08.559Z,57.54
2019-05-25T08:37:38.009Z,57.93
2019-05-25T08:40:08.800Z,56.63
2019-05-25T08:42:38.361Z,56.65
2019-05-25T08:45:09.101Z,57.32
2019-05-25T08:47:38.911Z,56.71
2019-05-25T08:50:09.083Z,56.45
2019-05-25T08:52:38.938Z,56.53
2019-05-25T08:55:10.467Z,55.41
2019-05-25T08:57:39.903Z,56.26
2019-05-25T09:00:11.157Z,56.11
2019-05-25T09:02:40.616Z,55.26
2019-05-25T09:05:10.428Z,55.08
2019-05-25T09:07:39.980Z,54.66
2019-05-25T09:10:10.652Z,55.67
2019-05-25T09:12:40.182Z,56.13
2019-05-25T09:15:09.875Z,55.18
2019-05-25T09:17:39.330Z,55.31
2019-05-25T09:20:09.885Z,56.84
2019-05-25T09:22:39.333Z,54.78
2019-05-25T09:25:09.416Z,54.97
2019-05-25T09:27:38.852Z,55.66
2019-05-25T09:30:10.397Z,55.34
2019-05-25T09:32:39.857Z,54.76
2019-05-25T09:35:09.960Z,55.39
2019-05-25T09:37:39.488Z,53.32
2019-05-25T09:40:09.909Z,52.99
2019-05-25T09:42:39.817Z,54.05
2019-05-25T09:45:13.821Z,52.40
2019-05-25T09:47:41.373Z,51.54
2019-05-25T09:50:11.504Z,52.08
2019-05-25T09:52:40.953Z,52.29
2019-05-25T09:55:11.097Z,51.38
2019-05-25T09:57:41.849Z,49.72
2019-05-25T10:00:14.144Z,51.20
2019-05-25T10:02:44.260Z,49.66
2019-05-25T10:05:14.496Z,49.17
2019-05-25T10:07:43.942Z,49.02
2019-05-25T10:10:14.920Z,48.91
2019-05-25T10:12:44.475Z,48.13
2019-05-25T10:15:14.747Z,51.22
2019-05-25T10:17:44.198Z,51.32
2019-05-25T10:20:14.205Z,50.36
2019-05-25T10:22:43.639Z,50.96
2019-05-25T10:25:13.425Z,50.98
2019-05-25T10:27:42.865Z,50.84
2019-05-25T10:30:12.948Z,49.46
2019-05-25T10:32:42.576Z,49.98
2019-05-25T10:35:12.528Z,49.96
2019-05-25T10:37:41.989Z,50.22
2019-05-25T10:40:12.180Z,50.85
2019-05-25T10:42:42.106Z,50.01
2019-05-25T10:45:12.866Z,49.83
2019-05-25T10:47:42.319Z,49.65
2019-05-25T10:50:12.092Z,49.55
2019-05-25T10:52:41.591Z,48.13
2019-05-25T10:55:13.248Z,48.67
2019-05-25T10:57:42.703Z,49.70
2019-05-25T11:00:13.772Z,48.58
2019-05-25T11:02:43.216Z,49.19
2019-05-25T11:05:13.121Z,47.58
2019-05-25T11:07:42.584Z,48.25
2019-05-25T11:10:14.163Z,48.46
2019-05-25T11:12:43.755Z,48.49
2019-05-25T11:15:14.911Z,47.94
2019-05-25T11:17:44.357Z,47.40
2019-05-25T11:20:14.637Z,47.88
2019-05-25T11:22:44.086Z,48.08
2019-05-25T11:25:14.042Z,47.62
2019-05-25T11:27:43.506Z,47.51
2019-05-25T11:30:13.470Z,47.46
2019-05-25T11:32:43.504Z,47.17
2019-05-25T11:35:14.053Z,47.77
2019-05-25T11:37:43.586Z,47.83
2019-05-25T11:40:13.753Z,46.59
2019-05-25T11:42:43.216Z,47.25
2019-05-25T11:45:13.394Z,46.82
2019-05-25T11:47:42.860Z,47.46
2019-05-25T11:50:12.711Z,45.97
2019-05-25T11:52:42.207Z,46.04
2019-05-25T11:55:12.242Z,45.78
2019-05-25T11:57:41.698Z,47.47
2019-05-25T12:00:24.865Z,47.99
2019-05-25T12:02:49.242Z,47.39
2019-05-25T12:05:19.494Z,46.45
2019-05-25T12:07:48.951Z,46.04
2019-05-25T12:10:18.605Z,46.36
2019-05-25T12:12:48.059Z,45.82
2019-05-25T12:15:18.419Z,46.14
2019-05-25T12:17:47.862Z,45.57
2019-05-25T12:20:19.302Z,44.94
2019-05-25T12:22:48.773Z,43.75
2019-05-25T12:25:18.454Z,43.57
2019-05-25T12:27:49.418Z,44.32
2019-05-25T12:30:20.348Z,43.61
2019-05-25T12:32:49.788Z,43.52
2019-05-25T12:35:20.197Z,43.79
2019-05-25T12:37:49.644Z,43.78
2019-05-25T12:40:20.003Z,43.46
2019-05-25T12:42:49.469Z,43.53
2019-05-25T12:45:18.983Z,43.25
2019-05-25T12:47:48.546Z,44.95
2019-05-25T12:50:18.183Z,45.45
2019-05-25T12:52:47.638Z,43.41
2019-05-25T12:55:17.168Z,43.91
2019-05-25T12:57:46.615Z,44.15
2019-05-25T13:00:16.967Z,43.78
2019-05-25T13:02:46.541Z,41.05
2019-05-25T13:05:16.132Z,41.76
2019-05-25T13:07:45.593Z,41.50
2019-05-25T13:10:15.361Z,39.54
2019-05-25T13:12:44.892Z,38.85
2019-05-25T13:15:14.576Z,39.06
2019-05-25T13:17:44.184Z,39.77
2019-05-25T13:20:14.166Z,40.49
2019-05-25T13:22:43.603Z,40.35
2019-05-25T13:25:13.252Z,40.28
2019-05-25T13:27:42.680Z,42.01
2019-05-25T13:30:12.637Z,40.76
2019-05-25T13:32:42.187Z,39.76
2019-05-25T13:35:11.932Z,42.10
2019-05-25T13:37:41.375Z,38.55
2019-05-25T13:40:11.385Z,38.82
2019-05-25T13:42:40.830Z,39.21
2019-05-25T13:45:10.418Z,38.32
2019-05-25T13:47:39.880Z,36.45
2019-05-25T13:50:10.748Z,37.40
2019-05-25T13:52:40.205Z,35.64
2019-05-25T13:55:10.161Z,33.38
2019-05-25T13:57:39.758Z,32.95
2019-05-25T14:00:10.480Z,32.92
2019-05-25T14:02:39.914Z,33.80
2019-05-25T14:05:09.719Z,34.21
2019-05-25T14:07:39.296Z,32.66
2019-05-25T14:10:09.051Z,31.15
2019-05-25T14:12:38.567Z,32.45
2019-05-25T14:15:09.659Z,31.99
2019-05-25T14:17:39.147Z,30.36
2019-05-25T14:20:10.655Z,30.90
2019-05-25T14:22:40.376Z,30.55
2019-05-25T14:25:10.075Z,31.34
2019-05-25T14:27:39.791Z,32.57
2019-05-25T14:30:10.094Z,33.44
2019-05-25T14:32:39.612Z,34.59
2019-05-25T14:35:09.366Z,34.97
2019-05-25T14:37:38.837Z,37.18
2019-05-25T14:40:11.435Z,37.60
2019-05-25T14:42:40.715Z,38.32
2019-05-25T14:45:11.583Z,40.18
2019-05-25T14:47:41.099Z,40.86
2019-05-25T14:50:11.097Z,38.79
2019-05-25T14:52:43.277Z,38.39
2019-05-25T14:55:11.885Z,37.49
2019-05-25T14:57:41.343Z,35.50
2019-05-25T15:00:13.332Z,34.65
2019-05-25T15:02:42.930Z,32.73
2019-05-25T15:05:12.723Z,31.38
2019-05-25T15:07:42.192Z,31.19
2019-05-25T15:10:12.145Z,31.34
2019-05-25T15:12:41.584Z,31.45
2019-05-25T15:15:11.653Z,30.35
2019-05-25T15:17:43.229Z,30.45
2019-05-25T15:20:12.796Z,30.31
2019-05-25T15:22:42.239Z,31.41
2019-05-25T15:25:12.190Z,32.04
2019-05-25T15:27:41.652Z,33.29
2019-05-25T15:30:11.604Z,32.32
2019-05-25T15:32:41.075Z,31.88
2019-05-25T15:35:10.525Z,31.72
2019-05-25T15:37:40.002Z,30.26
2019-05-25T15:40:11.715Z,29.31
2019-05-25T15:42:41.248Z,27.91
2019-05-25T15:45:12.136Z,27.08
2019-05-25T15:47:41.581Z,26.56
2019-05-25T15:50:15.091Z,26.65
2019-05-25T15:52:45.389Z,26.63
2019-05-25T15:55:16.075Z,26.67
2019-05-25T15:57:45.688Z,26.01
2019-05-25T16:00:16.047Z,26.60
2019-05-25T16:02:45.681Z,30.10
2019-05-25T16:05:15.823Z,29.90
2019-05-25T16:07:49.980Z,29.61
2019-05-25T16:10:19.913Z,29.63
2019-05-25T16:12:49.375Z,30.13
2019-05-25T16:15:26.273Z,29.87
2019-05-25T16:17:55.743Z,30.11
2019-05-25T16:20:25.375Z,30.96
2019-05-25T16:22:54.834Z,29.85
2019-05-25T16:25:24.362Z,30.16
2019-05-25T16:27:54.051Z,28.70
2019-05-25T16:30:23.736Z,28.47
2019-05-25T16:33:11.654Z,26.81
2019-05-25T16:35:24.552Z,28.08
2019-05-25T16:37:54.217Z,26.95
2019-05-25T16:40:23.886Z,29.91
2019-05-25T16:42:53.349Z,28.83
2019-05-25T16:45:22.815Z,29.20
2019-05-25T16:47:52.263Z,28.44
2019-05-25T16:50:21.707Z,27.13
2019-05-25T16:52:51.239Z,26.50
2019-05-25T16:55:20.658Z,27.01
2019-05-25T16:57:50.125Z,27.97
2019-05-25T17:00:28.998Z,28.62
2019-05-25T17:03:00.007Z,27.80
2019-05-25T17:05:29.836Z,27.17
2019-05-25T17:07:59.265Z,26.83
2019-05-25T17:10:28.728Z,26.26
2019-05-25T17:12:58.247Z,27.14
2019-05-25T17:15:27.694Z,27.11
2019-05-25T17:17:57.232Z,27.01
2019-05-25T17:20:26.759Z,27.64
2019-05-25T17:22:56.214Z,28.10
2019-05-25T17:25:25.690Z,28.14
2019-05-25T17:27:55.205Z,28.02
2019-05-25T17:30:37.904Z,28.33
2019-05-25T17:33:07.423Z,28.60
2019-05-25T17:35:37.407Z,28.15
2019-05-25T17:38:07.106Z,28.44
2019-05-25T17:40:36.558Z,30.64
2019-05-25T17:43:06.740Z,32.50
2019-05-25T17:45:36.196Z,35.34
2019-05-25T17:48:05.875Z,37.35
2019-05-25T17:50:35.417Z,39.92
2019-05-25T17:53:05.085Z,40.57
2019-05-25T17:55:34.542Z,41.33
2019-05-25T17:58:04.155Z,43.20
2019-05-25T18:00:42.491Z,43.46
2019-05-25T18:03:12.096Z,45.01
2019-05-25T18:05:41.629Z,45.13
2019-05-25T18:08:11.163Z,45.10
2019-05-25T18:10:51.887Z,45.88
2019-05-25T18:13:11.808Z,46.12
2019-05-25T18:15:41.235Z,46.28
2019-05-25T18:18:10.763Z,47.09
2019-05-25T18:20:40.217Z,46.97
2019-05-25T18:23:09.682Z,47.57
2019-05-25T18:25:39.123Z,47.68
2019-05-25T18:28:08.657Z,47.57
2019-05-25T18:30:38.105Z,48.05
2019-05-25T18:33:07.683Z,48.09
2019-05-25T18:35:37.089Z,48.48
2019-05-25T18:38:06.533Z,48.71
2019-05-25T18:40:35.990Z,49.37
2019-05-25T18:43:05.614Z,49.95
2019-05-25T18:45:35.067Z,49.99
2019-05-25T18:48:04.795Z,51.10
2019-05-25T18:50:34.236Z,51.66
2019-05-25T18:53:03.951Z,52.00
2019-05-25T18:55:33.410Z,52.34
2019-05-25T18:58:02.933Z,52.26
2019-05-25T19:00:32.530Z,52.30
2019-05-25T19:03:01.976Z,52.48
2019-05-25T19:05:31.675Z,52.89
2019-05-25T19:08:01.290Z,52.96
2019-05-25T19:10:30.784Z,53.52
2019-05-25T19:13:00.235Z,53.69
2019-05-25T19:15:30.082Z,53.85
2019-05-25T19:17:59.473Z,54.03
2019-05-25T19:20:28.960Z,54.45
2019-05-25T19:22:58.405Z,54.88
2019-05-25T19:25:27.868Z,55.70
2019-05-25T19:27:57.312Z,55.56
2019-05-25T19:30:26.754Z,55.94
2019-05-25T19:32:56.209Z,56.66
2019-05-25T19:35:26.146Z,57.48
2019-05-25T19:37:55.605Z,57.68
2019-05-25T19:40:25.113Z,58.45
2019-05-25T19:42:54.588Z,58.19
2019-05-25T19:45:24.191Z,58.54
2019-05-25T19:47:53.654Z,59.08
2019-05-25T19:50:23.308Z,59.27
2019-05-25T19:52:52.813Z,59.20
2019-05-25T19:55:22.265Z,59.96
2019-05-25T19:57:51.729Z,60.40
2019-05-25T20:00:21.807Z,60.77
2019-05-25T20:02:51.258Z,61.42
2019-05-25T20:05:20.871Z,61.06
2019-05-25T20:07:50.328Z,60.80
2019-05-25T20:10:19.915Z,61.28
2019-05-25T20:12:49.356Z,61.91
2019-05-25T20:15:18.955Z,61.82
2019-05-25T20:17:48.406Z,62.13
2019-05-25T20:20:17.992Z,62.76
2019-05-25T20:22:47.483Z,62.87
2019-05-25T20:25:17.361Z,63.21
2019-05-25T20:27:46.809Z,63.49
2019-05-25T20:30:16.646Z,63.32
2019-05-25T20:32:46.133Z,63.42
2019-05-25T20:35:31.266Z,64.45
2019-05-25T20:37:46.884Z,64.54
2019-05-25T20:40:16.740Z,64.44
2019-05-25T20:42:46.221Z,64.92
2019-05-25T20:45:15.941Z,65.78
2019-05-25T20:47:45.454Z,65.89
2019-05-25T20:50:15.344Z,66.31
2019-05-25T20:52:44.804Z,66.90
2019-05-25T20:55:14.338Z,66.96
2019-05-25T20:57:43.784Z,67.16
2019-05-25T21:00:14.864Z,67.46
2019-05-25T21:02:44.310Z,67.22
2019-05-25T21:05:13.757Z,67.22
2019-05-25T21:07:43.224Z,67.08
2019-05-25T21:10:12.813Z,67.11
2019-05-25T21:12:42.267Z,67.34
2019-05-25T21:15:11.982Z,67.06
2019-05-25T21:17:41.425Z,66.75
2019-05-25T21:20:10.961Z,66.82
2019-05-25T21:22:40.431Z,66.88
2019-05-25T21:25:11.189Z,66.82
2019-05-25T21:27:40.637Z,66.94
2019-05-25T21:30:10.608Z,67.24
2019-05-25T21:32:40.049Z,67.67
2019-05-25T21:35:10.287Z,69.16
2019-05-25T21:37:39.752Z,69.19
2019-05-25T21:40:09.923Z,69.32
2019-05-25T21:42:39.389Z,69.34
2019-05-25T21:45:09.163Z,69.20
2019-05-25T21:47:38.632Z,69.44
2019-05-25T21:50:08.754Z,69.64
2019-05-25T21:52:38.292Z,69.43
2019-05-25T21:55:08.044Z,68.92
2019-05-25T21:57:37.491Z,69.23
2019-05-25T22:00:11.205Z,69.75
2019-05-25T22:02:40.799Z,69.54
2019-05-25T22:05:10.621Z,69.06
2019-05-25T22:07:40.176Z,69.04
2019-05-25T22:10:10.776Z,69.47
2019-05-25T22:12:40.724Z,70.04
2019-05-25T22:15:11.973Z,70.21
2019-05-25T22:17:41.442Z,70.29
2019-05-25T22:20:12.513Z,70.22
2019-05-25T22:22:41.969Z,70.96
2019-05-25T22:25:11.674Z,70.84
2019-05-25T22:27:41.131Z,70.79
2019-05-25T22:30:10.993Z,71.32
2019-05-25T22:32:40.451Z,71.39
2019-05-25T22:35:10.056Z,71.45
2019-05-25T22:37:39.494Z,71.70
2019-05-25T22:40:09.444Z,71.63
2019-05-25T22:42:38.906Z,71.26
2019-05-25T22:45:08.800Z,71.66
2019-05-25T22:47:38.237Z,71.83
2019-05-25T22:50:09.340Z,72.69
2019-05-25T22:52:38.789Z,72.82
2019-05-25T22:55:08.440Z,72.76
2019-05-25T22:57:37.853Z,72.62
2019-05-25T23:00:10.568Z,72.82
2019-05-25T23:02:40.068Z,72.73
2019-05-25T23:05:10.430Z,72.77
2019-05-25T23:07:39.878Z,73.10
2019-05-25T23:10:10.199Z,72.75
2019-05-25T23:12:39.696Z,73.55
2019-05-25T23:15:10.614Z,73.51
2019-05-25T23:17:40.120Z,73.20
2019-05-25T23:20:09.863Z,73.04
2019-05-25T23:22:39.394Z,73.49
2019-05-25T23:25:09.273Z,73.26
2019-05-25T23:27:38.814Z,73.31
2019-05-25T23:30:08.690Z,73.55
2019-05-25T23:32:38.182Z,74.20
2019-05-25T23:35:07.894Z,74.06
2019-05-25T23:37:37.336Z,73.89
2019-05-25T23:40:08.606Z,74.25
2019-05-25T23:42:38.052Z,74.58
2019-05-25T23:45:08.721Z,74.50
2019-05-25T23:47:38.199Z,74.23
2019-05-25T23:50:09.028Z,73.87
2019-05-25T23:52:38.487Z,73.61
2019-05-25T23:55:08.363Z,73.98
2019-05-25T23:57:37.805Z,74.39
